Time;durP1;ratioP1;P1;durP2;ratioP2;P2;SDS_P1;SDS_P2;PMS_P1;PMS_P2;Temp;Humidity;BMP_temperature;BMP_pressure;BME280_temperature;BME280_humidity;BME280_pressure;Samples;Min_cycle;Max_cycle;Signal;HPM_P1;HPM_P2
2022/03/30 00:01:08;;;;;;;49.70;23.35;;;4.90;99.90;;;;;;5052540;28;20049;-87
2022/03/30 00:03:34;;;;;;;42.72;22.35;;;4.60;99.90;;;;;;5035018;28;20107;-88
2022/03/30 00:05:59;;;;;;;44.70;22.40;;;5.20;99.90;;;;;;5007708;28;20045;-87
2022/03/30 00:08:25;;;;;;;46.30;22.63;;;4.50;99.90;;;;;;5054796;28;20068;-87
2022/03/30 00:10:51;;;;;;;47.17;22.40;;;4.50;99.90;;;;;;5030523;28;20118;-85
2022/03/30 00:13:17;;;;;;;41.65;20.63;;;4.50;99.90;;;;;;5035618;28;20101;-86
2022/03/30 00:15:43;;;;;;;37.70;20.40;;;4.50;99.90;;;;;;5007488;28;20061;-87
2022/03/30 00:18:09;;;;;;;41.00;20.88;;;4.50;99.90;;;;;;5019134;28;20036;-83
2022/03/30 00:20:35;;;;;;;41.40;20.70;;;4.50;99.90;;;;;;5041334;28;20056;-84
2022/03/30 00:23:00;;;;;;;42.50;20.00;;;4.50;99.90;;;;;;5051755;28;20128;-86
2022/03/30 00:25:26;;;;;;;39.40;19.50;;;4.50;99.90;;;;;;5036172;28;20133;-86
2022/03/30 00:27:52;;;;;;;44.92;20.33;;;4.50;99.90;;;;;;5033913;28;20083;-82
2022/03/30 00:30:18;;;;;;;44.47;20.02;;;4.40;99.90;;;;;;5048284;28;20057;-85
2022/03/30 00:32:44;;;;;;;40.80;20.52;;;5.40;99.90;;;;;;5032751;28;20049;-88
2022/03/30 00:35:10;;;;;;;43.00;19.92;;;5.20;99.90;;;;;;5042975;28;20045;-88
2022/03/30 00:37:36;;;;;;;40.13;19.73;;;4.40;99.90;;;;;;5018394;28;20048;-88
2022/03/30 00:40:03;;;;;;;41.67;18.90;;;4.40;99.90;;;;;;5017776;28;20073;-89
2022/03/30 00:42:29;;;;;;;33.45;18.92;;;4.30;99.90;;;;;;5017353;28;20053;-88
2022/03/30 00:44:55;;;;;;;38.40;18.70;;;5.10;99.90;;;;;;5001009;28;20056;-82
2022/03/30 00:47:26;;;;;;;39.00;19.35;;;4.30;99.90;;;;;;5034126;28;20489;-87
2022/03/30 00:49:51;;;;;;;40.03;19.77;;;4.30;99.90;;;;;;5001371;28;20057;-88
2022/03/30 00:52:17;;;;;;;39.15;19.00;;;4.30;99.90;;;;;;5016669;28;20118;-88
2022/03/30 00:54:45;;;;;;;39.28;19.75;;;4.30;99.90;;;;;;5017121;28;20085;-87
2022/03/30 00:57:11;;;;;;;43.90;19.80;;;5.20;99.90;;;;;;5000411;28;20375;-88
2022/03/30 00:59:37;;;;;;;39.33;19.70;;;4.20;99.90;;;;;;4998961;28;20128;-87
2022/03/30 01:02:04;;;;;;;46.30;18.88;;;4.20;99.90;;;;;;5032994;28;20045;-88
2022/03/30 01:04:31;;;;;;;40.10;19.25;;;4.20;99.90;;;;;;5000636;28;20104;-87
2022/03/30 01:06:57;;;;;;;41.38;19.45;;;4.10;99.90;;;;;;5016989;28;20438;-83
2022/03/30 01:09:23;;;;;;;40.08;19.50;;;4.20;99.90;;;;;;5049411;28;20180;-87
2022/03/30 01:11:48;;;;;;;43.08;19.17;;;4.80;99.90;;;;;;5034524;28;20060;-86
2022/03/30 01:14:15;;;;;;;43.17;20.50;;;5.00;99.90;;;;;;5037467;28;20050;-86
2022/03/30 01:16:41;;;;;;;41.05;20.13;;;4.00;99.90;;;;;;5021312;28;20051;-87
2022/03/30 01:19:08;;;;;;;39.30;20.35;;;4.00;99.90;;;;;;5039149;28;20053;-87
2022/03/30 01:21:35;;;;;;;42.88;20.05;;;4.00;99.90;;;;;;5037522;28;20440;-87
2022/03/30 01:24:00;;;;;;;41.20;21.55;;;3.90;99.90;;;;;;5038479;28;20085;-84
2022/03/30 01:26:26;;;;;;;47.28;21.80;;;3.90;99.90;;;;;;5038399;28;20045;-88
2022/03/30 01:28:52;;;;;;;39.78;19.75;;;3.90;99.90;;;;;;5018777;28;20406;-89
2022/03/30 01:34:02;;;;;;;44.83;20.38;;;4.50;99.90;;;;;;5033425;28;20054;-84
2022/03/30 01:36:28;;;;;;;52.42;22.60;;;3.90;99.90;;;;;;5035749;28;20057;-89
2022/03/30 01:38:54;;;;;;;44.47;21.10;;;3.90;99.90;;;;;;5021095;28;20057;-89
2022/03/30 01:41:20;;;;;;;43.97;20.70;;;4.60;99.90;;;;;;5036790;28;20080;-88
2022/03/30 01:43:45;;;;;;;46.50;22.20;;;3.90;99.90;;;;;;5036163;28;20199;-87
2022/03/30 01:46:11;;;;;;;44.25;21.25;;;3.90;99.90;;;;;;5035057;28;20045;-85
2022/03/30 01:48:37;;;;;;;48.85;21.65;;;3.90;99.90;;;;;;5033718;28;20049;-87
2022/03/30 01:51:03;;;;;;;42.17;20.98;;;3.90;99.90;;;;;;5033765;28;20053;-83
2022/03/30 01:53:28;;;;;;;52.13;21.30;;;5.00;99.90;;;;;;5036898;28;20184;-88
2022/03/30 01:55:54;;;;;;;47.13;21.92;;;4.00;99.90;;;;;;5040500;28;20046;-88
2022/03/30 01:58:20;;;;;;;42.03;22.17;;;4.10;99.90;;;;;;5025137;28;20072;-88
2022/03/30 02:00:46;;;;;;;42.67;21.40;;;4.20;99.90;;;;;;5043027;28;20057;-87
2022/03/30 02:03:14;;;;;;;51.17;24.65;;;4.20;99.90;;;;;;5045446;28;20109;-85
2022/03/30 02:05:40;;;;;;;48.08;23.00;;;4.20;99.90;;;;;;5048828;28;20080;-87
2022/03/30 02:08:06;;;;;;;48.13;22.63;;;4.30;99.90;;;;;;5038180;28;20088;-84
2022/03/30 02:10:32;;;;;;;46.13;22.20;;;4.30;99.90;;;;;;5023431;28;20149;-87
2022/03/30 02:12:58;;;;;;;47.25;21.52;;;4.40;99.90;;;;;;5054963;28;20057;-87
2022/03/30 02:15:24;;;;;;;43.97;24.23;;;4.90;99.90;;;;;;5033271;28;20064;-87
2022/03/30 02:17:50;;;;;;;51.90;23.02;;;4.50;99.90;;;;;;5040157;28;20477;-87
2022/03/30 02:20:16;;;;;;;46.72;21.63;;;4.50;99.90;;;;;;5022109;28;20107;-87
2022/03/30 02:22:42;;;;;;;45.75;22.60;;;5.10;99.90;;;;;;5048823;28;20129;-88
2022/03/30 02:25:08;;;;;;;39.35;20.85;;;4.50;99.90;;;;;;5048094;28;20060;-85
2022/03/30 02:27:34;;;;;;;37.72;20.77;;;4.60;99.90;;;;;;5016057;28;20131;-87
2022/03/30 02:30:00;;;;;;;45.65;21.38;;;4.60;99.90;;;;;;5016399;28;20045;-88
2022/03/30 02:32:26;;;;;;;50.05;23.02;;;4.60;99.90;;;;;;5015823;28;20052;-88
2022/03/30 02:34:52;;;;;;;43.13;21.00;;;4.70;99.90;;;;;;5032808;28;20050;-87
2022/03/30 02:37:18;;;;;;;50.28;21.52;;;5.90;99.90;;;;;;5014550;28;20050;-84
2022/03/30 02:39:43;;;;;;;46.13;21.25;;;4.70;99.90;;;;;;5053671;28;20037;-87
2022/03/30 02:42:09;;;;;;;46.38;22.35;;;4.70;99.90;;;;;;5042663;28;20056;-84
2022/03/30 02:44:35;;;;;;;40.17;20.40;;;4.80;99.90;;;;;;5039778;28;20057;-88
2022/03/30 02:47:01;;;;;;;48.92;21.58;;;4.80;99.90;;;;;;5032760;28;20115;-88
2022/03/30 02:49:27;;;;;;;48.45;21.67;;;4.80;99.90;;;;;;5014951;28;20100;-88
2022/03/30 02:51:53;;;;;;;47.95;22.13;;;4.80;99.90;;;;;;5015828;28;20057;-87
2022/03/30 02:54:19;;;;;;;46.55;22.88;;;4.80;99.90;;;;;;5031793;28;20068;-88
2022/03/30 02:56:45;;;;;;;45.05;21.92;;;5.40;99.90;;;;;;5034949;28;20061;-86
2022/03/30 02:59:11;;;;;;;48.17;22.85;;;4.80;99.90;;;;;;5047484;28;20053;-84
2022/03/30 03:01:37;;;;;;;50.13;22.55;;;4.80;99.90;;;;;;5049272;28;20049;-88
2022/03/30 03:04:04;;;;;;;52.75;22.33;;;4.80;99.90;;;;;;5042492;28;20056;-86
2022/03/30 03:06:30;;;;;;;42.35;21.77;;;4.90;99.90;;;;;;5053244;28;20030;-84
2022/03/30 03:08:57;;;;;;;43.25;23.08;;;4.80;99.90;;;;;;5037490;28;20052;-87
2022/03/30 03:11:24;;;;;;;50.38;23.67;;;4.80;99.90;;;;;;5045185;28;20038;-84
2022/03/30 03:13:50;;;;;;;48.58;22.40;;;4.80;99.90;;;;;;5050950;28;20049;-88
2022/03/30 03:16:16;;;;;;;53.97;23.63;;;4.80;99.90;;;;;;5017465;28;20053;-87
2022/03/30 03:18:42;;;;;;;46.53;23.15;;;4.80;99.90;;;;;;5035630;28;20077;-88
2022/03/30 03:21:08;;;;;;;55.95;23.75;;;4.80;99.90;;;;;;5048180;28;20054;-87
2022/03/30 03:23:34;;;;;;;47.00;23.55;;;4.80;99.90;;;;;;5031044;28;20041;-88
2022/03/30 03:25:59;;;;;;;49.55;23.38;;;4.80;99.90;;;;;;5015625;28;20100;-89
2022/03/30 03:28:25;;;;;;;46.42;23.00;;;4.80;99.90;;;;;;5014474;28;20057;-88
2022/03/30 03:30:51;;;;;;;43.83;22.48;;;4.80;99.90;;;;;;5031139;28;20053;-86
2022/03/30 03:33:17;;;;;;;51.78;22.67;;;5.70;99.90;;;;;;5030733;28;20049;-84
2022/03/30 03:35:44;;;;;;;49.42;23.30;;;4.80;99.90;;;;;;5034958;28;20058;-87
2022/03/30 03:38:09;;;;;;;50.72;23.23;;;4.90;99.90;;;;;;5044990;28;20029;-87
2022/03/30 03:40:35;;;;;;;51.42;22.65;;;4.80;99.90;;;;;;5027208;28;20186;-87
2022/03/30 03:43:01;;;;;;;47.15;23.17;;;4.80;99.90;;;;;;5062951;28;20084;-86
2022/03/30 03:45:27;;;;;;;46.63;22.65;;;4.90;99.90;;;;;;5024668;28;20096;-87
2022/03/30 03:47:53;;;;;;;48.22;22.15;;;4.90;99.90;;;;;;5036815;28;20188;-88
2022/03/30 03:50:19;;;;;;;47.97;22.33;;;5.90;99.90;;;;;;5030566;28;20060;-86
2022/03/30 03:52:44;;;;;;;47.85;22.27;;;5.00;99.90;;;;;;5014140;28;20072;-88
2022/03/30 03:55:10;;;;;;;46.05;21.85;;;5.20;99.90;;;;;;5030421;28;20521;-88
2022/03/30 03:57:38;;;;;;;50.65;22.77;;;5.00;99.90;;;;;;5029344;28;20052;-88
2022/03/30 04:00:04;;;;;;;51.05;22.65;;;5.20;99.90;;;;;;5029899;28;20485;-86
2022/03/30 04:02:30;;;;;;;45.65;21.40;;;5.00;99.90;;;;;;5046206;28;20041;-87
2022/03/30 04:04:56;;;;;;;49.75;20.88;;;5.10;99.90;;;;;;5030470;28;20045;-89
2022/03/30 04:07:24;;;;;;;49.15;22.58;;;5.00;99.90;;;;;;5013460;28;20456;-87
2022/03/30 04:09:50;;;;;;;47.30;21.98;;;5.10;99.90;;;;;;5032355;28;20080;-88
2022/03/30 04:12:16;;;;;;;41.00;20.65;;;5.10;99.90;;;;;;5051947;28;20050;-84
2022/03/30 04:14:41;;;;;;;48.17;22.33;;;5.10;99.90;;;;;;5053478;28;20037;-89
2022/03/30 04:17:07;;;;;;;42.17;21.63;;;5.10;99.90;;;;;;5030854;28;20096;-89
2022/03/30 04:19:33;;;;;;;44.63;20.30;;;5.20;99.90;;;;;;5030041;28;20084;-88
2022/03/30 04:21:58;;;;;;;44.60;21.38;;;5.20;99.90;;;;;;5030292;28;20064;-87
2022/03/30 04:24:24;;;;;;;45.95;22.33;;;5.40;99.90;;;;;;5030147;28;20056;-88
2022/03/30 04:26:50;;;;;;;41.00;20.48;;;5.20;99.90;;;;;;5030727;28;20045;-89
2022/03/30 04:29:15;;;;;;;40.25;19.13;;;5.30;99.90;;;;;;5030268;28;20080;-88
2022/03/30 04:31:41;;;;;;;44.53;19.45;;;5.20;99.90;;;;;;5031371;28;20505;-89
2022/03/30 04:34:07;;;;;;;32.13;18.52;;;5.20;99.90;;;;;;5046883;28;20048;-88
2022/03/30 04:36:32;;;;;;;40.63;16.70;;;5.20;99.90;;;;;;5028952;28;20060;-88
2022/03/30 04:38:58;;;;;;;34.78;16.90;;;5.20;99.90;;;;;;5029881;28;20045;-88
2022/03/30 04:41:24;;;;;;;36.03;15.25;;;5.30;99.90;;;;;;5029093;28;20061;-85
2022/03/30 04:43:50;;;;;;;35.20;15.68;;;5.30;99.90;;;;;;5013215;28;20053;-86
2022/03/30 04:46:15;;;;;;;20.35;9.95;;;5.30;99.90;;;;;;5046295;28;20057;-87
2022/03/30 04:48:41;;;;;;;11.00;5.90;;;5.60;99.90;;;;;;5030661;28;20053;-88
2022/03/30 04:51:07;;;;;;;9.65;5.28;;;5.80;99.90;;;;;;5033205;28;20133;-88
2022/03/30 04:53:32;;;;;;;5.13;3.28;;;5.90;99.90;;;;;;5032822;28;20539;-89
2022/03/30 04:55:58;;;;;;;6.72;3.67;;;6.10;99.90;;;;;;5034153;28;20038;-88
2022/03/30 04:58:24;;;;;;;4.85;2.22;;;6.10;99.90;;;;;;5033872;28;20211;-84
2022/03/30 05:00:49;;;;;;;3.42;2.20;;;6.20;99.90;;;;;;5042792;28;20037;-83
2022/03/30 05:03:15;;;;;;;5.53;3.20;;;6.20;99.90;;;;;;5057537;28;20053;-83
2022/03/30 05:05:41;;;;;;;2.95;2.40;;;6.60;99.90;;;;;;5051361;28;20041;-87
2022/03/30 05:08:06;;;;;;;4.03;2.78;;;5.90;99.90;;;;;;5036104;28;20097;-88
2022/03/30 05:10:32;;;;;;;2.92;2.50;;;6.00;99.90;;;;;;5032785;28;20095;-88
2022/03/30 05:13:02;;;;;;;6.00;2.80;;;6.00;99.90;;;;;;5033419;28;20099;-87
2022/03/30 05:15:28;;;;;;;3.13;1.88;;;6.20;99.90;;;;;;5032073;28;20115;-81
2022/03/30 05:17:54;;;;;;;4.93;3.05;;;6.10;99.90;;;;;;5032393;28;20041;-88
2022/03/30 05:20:20;;;;;;;3.22;2.40;;;6.00;99.90;;;;;;5016239;28;20192;-87
2022/03/30 05:22:46;;;;;;;3.53;2.75;;;5.90;99.90;;;;;;5031991;28;20185;-86
2022/03/30 05:25:21;;;;;;;4.03;2.60;;;5.90;99.90;;;;;;5032764;28;20080;-88
2022/03/30 05:27:47;;;;;;;2.28;2.00;;;6.00;99.90;;;;;;5031971;28;20136;-87
2022/03/30 05:30:13;;;;;;;2.55;1.67;;;6.00;99.90;;;;;;5016263;28;20125;-88
2022/03/30 05:32:40;;;;;;;2.72;1.90;;;6.00;99.90;;;;;;5031471;28;20045;-88
2022/03/30 05:35:06;;;;;;;2.42;2.20;;;6.80;99.90;;;;;;5032202;28;20103;-88
2022/03/30 05:37:32;;;;;;;3.92;1.65;;;6.10;99.90;;;;;;5015029;28;20060;-89
2022/03/30 05:39:58;;;;;;;1.67;1.58;;;6.10;99.90;;;;;;5032513;28;20382;-89
2022/03/30 05:42:24;;;;;;;2.00;1.80;;;6.00;99.90;;;;;;5032136;28;20136;-88
2022/03/30 05:44:50;;;;;;;0.93;0.93;;;7.10;99.90;;;;;;5031606;28;20049;-88
2022/03/30 05:47:16;;;;;;;1.48;1.38;;;6.30;99.90;;;;;;5032097;28;20095;-87
2022/03/30 05:49:41;;;;;;;1.40;1.30;;;6.20;99.90;;;;;;5033981;28;20093;-88
2022/03/30 05:52:07;;;;;;;1.70;1.60;;;7.00;99.90;;;;;;5035434;28;20049;-88
2022/03/30 05:54:33;;;;;;;1.20;1.10;;;6.10;99.90;;;;;;5014707;28;20053;-89
2022/03/30 05:57:02;;;;;;;1.30;1.20;;;6.00;99.90;;;;;;5031993;28;20073;-89
2022/03/30 05:59:29;;;;;;;2.55;1.42;;;6.00;99.90;;;;;;5031403;28;20485;-89
2022/03/30 06:01:55;;;;;;;1.40;1.30;;;6.00;99.90;;;;;;5031118;28;20543;-87
2022/03/30 06:04:20;;;;;;;1.95;1.35;;;5.60;99.90;;;;;;5033568;28;20105;-87
2022/03/30 06:06:46;;;;;;;4.35;1.85;;;5.70;99.90;;;;;;5035035;28;20136;-87
2022/03/30 06:09:12;;;;;;;1.45;1.00;;;6.10;99.90;;;;;;5053584;28;20045;-83
2022/03/30 06:11:37;;;;;;;1.60;1.50;;;5.90;99.90;;;;;;5049583;28;20049;-85
2022/03/30 06:14:03;;;;;;;1.60;1.50;;;5.90;99.90;;;;;;5036475;28;20111;-86
2022/03/30 06:16:29;;;;;;;2.28;1.35;;;5.80;99.90;;;;;;5052933;28;20037;-84
2022/03/30 06:18:54;;;;;;;2.30;2.10;;;6.00;99.90;;;;;;5045158;28;20497;-88
2022/03/30 06:21:20;;;;;;;2.30;2.10;;;5.90;99.90;;;;;;5021478;28;20393;-88
2022/03/30 06:23:46;;;;;;;3.42;2.95;;;5.90;99.90;;;;;;5060150;28;20041;-86
2022/03/30 06:26:12;;;;;;;3.72;2.78;;;6.20;99.90;;;;;;5049717;28;20140;-88
2022/03/30 06:28:38;;;;;;;3.75;2.60;;;6.00;99.90;;;;;;5031637;28;20095;-87
2022/03/30 06:31:03;;;;;;;2.50;2.30;;;6.20;99.90;;;;;;5048775;28;20477;-87
2022/03/30 06:33:29;;;;;;;2.67;2.45;;;6.30;99.90;;;;;;5032824;28;20385;-87
2022/03/30 06:35:55;;;;;;;3.50;2.97;;;6.30;99.90;;;;;;5031436;28;20318;-89
2022/03/30 06:38:22;;;;;;;3.10;2.90;;;6.40;99.90;;;;;;5014799;28;20833;-88
2022/03/30 06:40:49;;;;;;;3.22;2.92;;;6.40;99.90;;;;;;5030675;28;20057;-87
2022/03/30 06:43:15;;;;;;;3.33;2.83;;;5.70;99.90;;;;;;5030882;28;20516;-89
2022/03/30 06:45:40;;;;;;;2.83;2.45;;;6.80;99.90;;;;;;5013615;28;20136;-86
2022/03/30 06:48:06;;;;;;;1.90;1.80;;;7.20;99.90;;;;;;5028953;28;20057;-86
2022/03/30 06:50:32;;;;;;;3.25;2.53;;;7.30;99.90;;;;;;5026955;28;20045;-87
2022/03/30 06:52:59;;;;;;;1.83;1.42;;;7.40;99.90;;;;;;5026923;28;20588;-84
2022/03/30 06:55:25;;;;;;;2.47;2.08;;;8.10;99.90;;;;;;4991769;28;20057;-85
2022/03/30 06:57:51;;;;;;;1.77;1.67;;;7.80;99.90;;;;;;5026555;28;20049;-84
2022/03/30 07:00:17;;;;;;;1.98;1.77;;;7.80;99.90;;;;;;5002560;28;20097;-84
2022/03/30 07:02:44;;;;;;;2.15;1.70;;;8.70;99.90;;;;;;5039643;28;20058;-84
2022/03/30 07:05:10;;;;;;;2.25;1.70;;;8.50;99.90;;;;;;5045649;28;20056;-83
2022/03/30 07:10:23;;;;;;;2.47;1.48;;;8.50;99.90;;;;;;5023938;28;20057;-84
2022/03/30 07:12:50;;;;;;;2.53;1.85;;;8.40;99.90;;;;;;5015376;28;20120;-82
2022/03/30 07:15:16;;;;;;;2.47;1.40;;;8.10;99.90;;;;;;5014207;28;20100;-83
2022/03/30 07:17:44;;;;;;;1.83;1.00;;;7.90;99.90;;;;;;5013705;28;20060;-83
2022/03/30 07:20:13;;;;;;;3.50;1.50;;;7.80;99.90;;;;;;5013706;28;20107;-84
2022/03/30 07:22:39;;;;;;;2.88;1.50;;;7.60;99.90;;;;;;4982076;28;20049;-83
2022/03/30 07:25:05;;;;;;;2.78;1.38;;;7.40;99.90;;;;;;5053974;28;20041;-82
2022/03/30 07:27:31;;;;;;;1.35;1.25;;;7.50;99.90;;;;;;5049118;28;20025;-84
2022/03/30 07:29:57;;;;;;;2.45;1.17;;;7.40;99.90;;;;;;5017834;28;20430;-85
2022/03/30 07:32:23;;;;;;;2.90;1.30;;;6.90;99.90;;;;;;5028381;28;20037;-86
2022/03/30 07:34:49;;;;;;;2.97;1.70;;;7.20;99.90;;;;;;5026752;28;20496;-85
2022/03/30 07:37:15;;;;;;;5.90;2.40;;;6.90;99.90;;;;;;5029211;28;20099;-86
2022/03/30 07:39:40;;;;;;;2.50;1.92;;;6.90;99.90;;;;;;5013085;28;20057;-85
2022/03/30 07:42:06;;;;;;;1.27;1.10;;;7.20;99.90;;;;;;5028302;28;20049;-84
2022/03/30 07:44:32;;;;;;;1.20;1.10;;;7.70;99.90;;;;;;5029420;28;20084;-85
2022/03/30 07:46:59;;;;;;;4.45;1.05;;;7.80;99.90;;;;;;5012051;28;20076;-84
2022/03/30 07:49:25;;;;;;;3.33;1.50;;;7.90;99.90;;;;;;5026724;28;20051;-84
2022/03/30 07:51:50;;;;;;;5.38;1.27;;;7.80;99.90;;;;;;4995342;28;20057;-85
2022/03/30 07:54:16;;;;;;;2.67;1.33;;;7.80;99.90;;;;;;5023517;28;20057;-85
2022/03/30 07:56:42;;;;;;;2.03;1.45;;;7.50;99.90;;;;;;5009679;28;20068;-85
2022/03/30 07:59:07;;;;;;;2.50;1.77;;;7.40;99.90;;;;;;5021787;28;20049;-85
2022/03/30 08:01:33;;;;;;;3.13;1.30;;;7.40;99.90;;;;;;5027101;28;20076;-84
2022/03/30 08:03:59;;;;;;;3.78;1.55;;;7.30;99.90;;;;;;5028637;28;20061;-84
2022/03/30 08:06:26;;;;;;;4.53;1.80;;;7.40;99.90;;;;;;5009791;28;20473;-87
2022/03/30 08:08:52;;;;;;;4.75;1.60;;;7.50;99.90;;;;;;5027555;28;20044;-83
2022/03/30 08:11:18;;;;;;;3.95;1.40;;;8.20;99.90;;;;;;5012739;28;20045;-85
2022/03/30 08:13:43;;;;;;;4.95;1.50;;;8.50;99.90;;;;;;5012767;28;20154;-84
2022/03/30 08:16:09;;;;;;;6.85;1.88;;;8.70;99.90;;;;;;5010998;28;20049;-83
2022/03/30 08:18:36;;;;;;;4.72;1.52;;;8.90;99.90;;;;;;5032118;28;20213;-85
2022/03/30 08:23:46;;;;;;;3.70;1.20;;;8.30;99.90;;;;;;5016781;28;20485;-86
2022/03/30 08:26:12;;;;;;;5.68;1.38;;;8.60;99.90;;;;;;5026491;28;20045;-84
2022/03/30 08:28:37;;;;;;;2.20;1.40;;;8.80;99.90;;;;;;5030174;28;20045;-84
2022/03/30 08:31:03;;;;;;;5.28;1.40;;;9.00;99.90;;;;;;5024427;28;20046;-83
2022/03/30 08:33:29;;;;;;;4.78;1.48;;;8.90;99.90;;;;;;5015318;28;20449;-83
2022/03/30 08:35:55;;;;;;;3.85;1.42;;;9.00;99.90;;;;;;4996540;28;20050;-88
2022/03/30 08:38:21;;;;;;;4.20;1.60;;;9.10;99.90;;;;;;5013197;28;20052;-86
2022/03/30 08:40:47;;;;;;;1.55;0.75;;;9.00;99.90;;;;;;5016226;28;20549;-85
2022/03/30 08:43:13;;;;;;;4.95;1.60;;;9.30;99.90;;;;;;5013814;28;20124;-85
2022/03/30 08:45:39;;;;;;;3.25;1.50;;;9.20;99.90;;;;;;5003235;28;20760;-84
2022/03/30 08:48:06;;;;;;;3.85;1.23;;;9.20;99.90;;;;;;5005913;28;20050;-83
2022/03/30 08:50:32;;;;;;;2.80;1.25;;;8.80;99.90;;;;;;5030082;28;20128;-84
2022/03/30 08:53:00;;;;;;;3.78;1.73;;;8.70;99.90;;;;;;5015213;28;20069;-83
2022/03/30 08:55:26;;;;;;;4.72;1.40;;;8.80;99.90;;;;;;5015063;28;20053;-82
2022/03/30 08:57:51;;;;;;;3.55;1.40;;;8.60;99.90;;;;;;5031462;28;20076;-82
2022/03/30 09:00:18;;;;;;;4.65;1.35;;;9.00;99.90;;;;;;5016262;28;20060;-83
2022/03/30 09:02:53;;;;;;;7.18;1.30;;;8.90;99.90;;;;;;5007859;28;20398;-85
2022/03/30 09:05:21;;;;;;;2.40;1.30;;;9.00;99.90;;;;;;5032310;28;20088;-85
2022/03/30 09:07:49;;;;;;;5.22;1.30;;;9.10;99.90;;;;;;5012589;28;20053;-85
2022/03/30 09:10:20;;;;;;;2.25;1.10;;;9.60;99.90;;;;;;5026096;28;20044;-84
2022/03/30 09:12:50;;;;;;;6.05;1.13;;;8.70;99.90;;;;;;5014034;28;20049;-85
2022/03/30 09:15:17;;;;;;;5.43;1.38;;;8.20;99.90;;;;;;5026083;28;20049;-84
2022/03/30 09:17:43;;;;;;;4.35;2.20;;;8.00;99.90;;;;;;5043883;28;20089;-85
2022/03/30 09:20:20;;;;;;;2.80;1.80;;;7.90;99.90;;;;;;5023794;28;20152;-84
2022/03/30 09:22:50;;;;;;;6.78;1.60;;;7.60;99.90;;;;;;5024510;28;20106;-84
2022/03/30 09:25:16;;;;;;;6.45;2.30;;;7.50;99.90;;;;;;5010617;28;20052;-85
2022/03/30 09:27:43;;;;;;;4.78;1.77;;;7.40;99.90;;;;;;5015796;28;20038;-87
2022/03/30 09:30:15;;;;;;;4.85;1.65;;;7.50;99.90;;;;;;4999428;28;20048;-85
2022/03/30 09:32:42;;;;;;;3.97;1.85;;;7.40;99.90;;;;;;5015446;28;20045;-87
2022/03/30 09:35:38;;;;;;;6.38;2.20;;;7.30;99.90;;;;;;5014250;28;20520;-86
2022/03/30 09:38:11;;;;;;;5.65;2.25;;;7.20;99.90;;;;;;5003256;28;20057;-85
2022/03/30 09:40:47;;;;;;;5.22;2.28;;;7.20;99.90;;;;;;4998274;28;20046;-82
2022/03/30 09:43:34;;;;;;;4.18;1.90;;;7.20;99.90;;;;;;5032531;28;20060;-85
2022/03/30 09:46:02;;;;;;;12.15;2.97;;;7.30;99.90;;;;;;5016087;28;20119;-84
2022/03/30 09:48:29;;;;;;;8.35;2.53;;;7.20;99.90;;;;;;5054649;28;20075;-85
2022/03/30 09:50:55;;;;;;;7.03;2.50;;;7.40;99.90;;;;;;5028171;28;20045;-83
2022/03/30 09:53:23;;;;;;;5.45;1.80;;;7.50;99.90;;;;;;5018978;28;20125;-85
2022/03/30 09:55:58;;;;;;;3.47;1.65;;;7.30;99.90;;;;;;5032304;28;20100;-85
2022/03/30 09:58:26;;;;;;;5.22;1.98;;;7.50;99.90;;;;;;5032051;28;20041;-84
2022/03/30 10:01:09;;;;;;;4.47;1.33;;;7.50;99.90;;;;;;5015114;28;20056;-85
2022/03/30 10:03:42;;;;;;;4.97;1.80;;;7.40;99.90;;;;;;5031871;28;20054;-84
2022/03/30 10:06:09;;;;;;;4.30;1.40;;;7.50;99.90;;;;;;5031118;28;20397;-83
2022/03/30 10:08:34;;;;;;;4.15;1.77;;;7.90;99.90;;;;;;4998011;28;20049;-83
2022/03/30 10:11:00;;;;;;;2.88;1.42;;;7.90;99.90;;;;;;5013953;28;20076;-82
2022/03/30 10:13:26;;;;;;;2.22;1.40;;;7.70;99.90;;;;;;5025437;28;20077;-83
2022/03/30 10:15:52;;;;;;;5.75;1.73;;;7.60;99.90;;;;;;5011728;28;20041;-83
2022/03/30 10:18:19;;;;;;;3.22;1.67;;;7.60;99.90;;;;;;5026466;28;20048;-84
2022/03/30 10:20:50;;;;;;;3.30;1.77;;;7.50;99.90;;;;;;4989314;28;20080;-84
2022/03/30 10:23:44;;;;;;;4.30;2.22;;;7.70;99.90;;;;;;5013787;28;20061;-84
2022/03/30 10:26:25;;;;;;;3.65;1.67;;;7.90;99.90;;;;;;5013098;28;20056;-83
2022/03/30 10:29:11;;;;;;;4.78;1.83;;;8.60;99.90;;;;;;5014028;28;20120;-84
2022/03/30 10:31:37;;;;;;;7.20;1.67;;;8.10;99.90;;;;;;5012851;28;20104;-82
2022/03/30 10:34:25;;;;;;;4.88;1.95;;;8.40;99.90;;;;;;5012535;28;20049;-82
2022/03/30 10:37:00;;;;;;;3.70;1.50;;;8.20;99.90;;;;;;5017736;28;20037;-82
2022/03/30 10:39:27;;;;;;;3.65;1.48;;;8.60;99.90;;;;;;5036313;28;20060;-82
2022/03/30 10:42:08;;;;;;;4.10;1.48;;;8.50;99.90;;;;;;5033918;28;20089;-82
2022/03/30 10:44:35;;;;;;;1.77;1.15;;;8.40;99.90;;;;;;5033758;28;20045;-81
2022/03/30 10:47:23;;;;;;;5.45;1.75;;;8.50;99.90;;;;;;5031244;28;20473;-82
2022/03/30 10:50:00;;;;;;;2.15;1.40;;;8.70;99.90;;;;;;5024915;28;20046;-82
2022/03/30 10:52:42;;;;;;;5.82;1.33;;;9.10;99.90;;;;;;4983932;28;20083;-83
2022/03/30 10:55:14;;;;;;;3.83;1.10;;;8.80;99.90;;;;;;5010978;28;20053;-83
2022/03/30 10:57:43;;;;;;;5.07;1.38;;;9.20;99.90;;;;;;5012917;28;20041;-83
2022/03/30 11:00:18;;;;;;;2.60;0.65;;;9.30;99.90;;;;;;5029005;28;20065;-83
2022/03/30 11:02:44;;;;;;;3.55;1.80;;;9.20;99.90;;;;;;5013469;28;20056;-83
2022/03/30 11:05:14;;;;;;;3.40;1.40;;;9.20;99.90;;;;;;5013044;28;20108;-82
2022/03/30 11:07:39;;;;;;;4.22;1.40;;;9.40;99.90;;;;;;4980663;28;20080;-82
2022/03/30 11:10:15;;;;;;;2.25;1.50;;;9.50;99.90;;;;;;5012671;28;20095;-84
2022/03/30 11:13:05;;;;;;;1.98;1.38;;;9.20;99.90;;;;;;5026290;28;20056;-82
2022/03/30 11:15:51;;;;;;;3.92;1.67;;;9.00;99.90;;;;;;5001175;28;20048;-83
2022/03/30 11:18:20;;;;;;;3.33;1.50;;;9.20;99.90;;;;;;5023729;28;20466;-83
2022/03/30 11:21:19;;;;;;;6.00;1.40;;;9.10;99.90;;;;;;5010513;28;20068;-83
2022/03/30 11:24:07;;;;;;;2.25;1.50;;;9.60;99.90;;;;;;5029635;28;20041;-82
2022/03/30 11:27:06;;;;;;;3.97;1.25;;;9.60;99.90;;;;;;5029838;28;20064;-82
2022/03/30 11:29:41;;;;;;;3.42;1.17;;;9.20;99.90;;;;;;5029468;28;20056;-84
2022/03/30 11:32:22;;;;;;;5.10;1.20;;;9.10;99.90;;;;;;5029940;28;20057;-83
2022/03/30 11:34:55;;;;;;;2.42;1.23;;;9.10;99.90;;;;;;5030071;28;20128;-82
2022/03/30 11:37:41;;;;;;;3.10;1.55;;;9.10;99.90;;;;;;5027695;28;20397;-81
2022/03/30 11:40:08;;;;;;;4.10;2.03;;;8.70;99.90;;;;;;5028119;28;20049;-82
2022/03/30 11:42:36;;;;;;;4.30;1.42;;;8.90;99.90;;;;;;5009049;28;20057;-81
2022/03/30 11:45:21;;;;;;;3.90;1.30;;;8.80;99.90;;;;;;5012380;28;20061;-82
2022/03/30 11:47:47;;;;;;;;;;;8.70;99.90;;;;;;5013705;28;20081;-82
2022/03/30 11:50:14;;;;;;;3.60;1.65;;;8.90;99.90;;;;;;5020816;28;19968;-81
2022/03/30 11:52:40;;;;;;;3.25;1.95;;;9.00;99.90;;;;;;5009027;28;20064;-82
2022/03/30 11:55:07;;;;;;;4.70;1.40;;;9.10;99.90;;;;;;5011771;28;20057;-81
2022/03/30 11:57:38;;;;;;;3.45;1.50;;;8.70;99.90;;;;;;4995706;28;20191;-81
2022/03/30 12:00:09;;;;;;;3.40;1.30;;;8.40;99.90;;;;;;5032110;28;20120;-81
2022/03/30 12:02:38;;;;;;;3.28;1.35;;;8.30;99.90;;;;;;5031251;28;20049;-82
2022/03/30 12:05:04;;;;;;;3.03;1.92;;;8.30;99.90;;;;;;5033460;28;20054;-81
2022/03/30 12:07:34;;;;;;;2.35;1.58;;;8.40;99.90;;;;;;5037968;28;20046;-81
2022/03/30 12:10:00;;;;;;;2.47;1.40;;;8.50;99.90;;;;;;5033502;28;20057;-80
2022/03/30 12:12:36;;;;;;;2.90;1.50;;;8.90;99.90;;;;;;5029157;28;20049;-81
2022/03/30 12:15:07;;;;;;;5.95;1.73;;;8.90;99.90;;;;;;5025570;28;20046;-82
2022/03/30 12:17:33;;;;;;;3.40;1.33;;;8.70;99.90;;;;;;5029079;28;20346;-84
2022/03/30 12:20:00;;;;;;;0.70;0.70;;;8.50;99.90;;;;;;5020691;28;20060;-82
2022/03/30 12:22:25;;;;;;;5.25;1.98;;;9.00;99.90;;;;;;5022175;28;20497;-81
2022/03/30 12:24:52;;;;;;;1.77;1.17;;;8.90;99.90;;;;;;5017287;28;20192;-82
2022/03/30 12:27:17;;;;;;;3.03;1.40;;;9.50;99.90;;;;;;5040021;28;20046;-81
2022/03/30 12:29:44;;;;;;;2.75;1.48;;;9.90;99.90;;;;;;5028428;28;20489;-83
2022/03/30 12:32:11;;;;;;;4.35;1.23;;;9.60;99.90;;;;;;5017051;28;20099;-82
2022/03/30 12:34:37;;;;;;;2.58;1.20;;;10.10;99.90;;;;;;5016451;28;20111;-82
2022/03/30 12:37:05;;;;;;;1.90;0.80;;;9.60;99.90;;;;;;5017128;28;20421;-83
2022/03/30 12:39:35;;;;;;;2.88;1.10;;;9.60;99.90;;;;;;5031623;28;20103;-82
2022/03/30 12:42:04;;;;;;;2.17;1.20;;;9.70;99.90;;;;;;5031796;28;20057;-82
2022/03/30 12:44:38;;;;;;;2.50;1.20;;;9.50;99.90;;;;;;5030227;28;20101;-82
2022/03/30 12:47:05;;;;;;;6.40;1.60;;;9.30;99.90;;;;;;5031457;28;20111;-82
2022/03/30 12:49:39;;;;;;;5.63;1.60;;;9.20;99.90;;;;;;5015115;28;20116;-83
2022/03/30 12:52:13;;;;;;;5.10;1.20;;;9.30;99.90;;;;;;5029475;28;20136;-83
2022/03/30 12:54:39;;;;;;;4.18;1.33;;;9.20;99.90;;;;;;4998411;28;20049;-84
2022/03/30 12:57:05;;;;;;;2.83;1.20;;;9.40;99.90;;;;;;5009857;28;20112;-82
2022/03/30 12:59:31;;;;;;;4.80;1.38;;;9.10;99.90;;;;;;5024201;28;20154;-82
2022/03/30 13:01:58;;;;;;;5.55;1.67;;;9.40;99.90;;;;;;5024430;28;20049;-82